sensor_id;sensor_type;location;lat;lon;timestamp;P1;P2;P0
47810;PMS5003;33575;52.600;7.318;2023-03-03T00:01:42;47;43;
47810;PMS5003;33575;52.600;7.318;2023-03-03T00:04:12;47;43;
47810;PMS5003;33575;52.600;7.318;2023-03-03T00:06:43;41;41;
47810;PMS5003;33575;52.600;7.318;2023-03-03T00:09:13;51;46;
47810;PMS5003;33575;52.600;7.318;2023-03-03T00:11:44;41;37;
47810;PMS5003;33575;52.600;7.318;2023-03-03T00:14:17;42;39;
47810;PMS5003;33575;52.600;7.318;2023-03-03T00:16:45;47;43;
47810;PMS5003;33575;52.600;7.318;2023-03-03T00:19:16;49;45;
47810;PMS5003;33575;52.600;7.318;2023-03-03T00:21:46;46;40;
47810;PMS5003;33575;52.600;7.318;2023-03-03T00:24:17;41;40;
47810;PMS5003;33575;52.600;7.318;2023-03-03T00:26:47;41;37;
47810;PMS5003;33575;52.600;7.318;2023-03-03T00:31:48;38;36;
47810;PMS5003;33575;52.600;7.318;2023-03-03T00:34:19;45;42;
47810;PMS5003;33575;52.600;7.318;2023-03-03T00:36:50;49;44;
47810;PMS5003;33575;52.600;7.318;2023-03-03T00:39:22;44;39;
47810;PMS5003;33575;52.600;7.318;2023-03-03T00:41:50;50;43;
47810;PMS5003;33575;52.600;7.318;2023-03-03T00:46:50;48;45;
47810;PMS5003;33575;52.600;7.318;2023-03-03T00:49:21;55;48;
47810;PMS5003;33575;52.600;7.318;2023-03-03T00:51:52;55;49;
47810;PMS5003;33575;52.600;7.318;2023-03-03T00:54:22;51;48;
47810;PMS5003;33575;52.600;7.318;2023-03-03T00:56:52;47;45;
47810;PMS5003;33575;52.600;7.318;2023-03-03T00:59:22;42;41;
47810;PMS5003;33575;52.600;7.318;2023-03-03T01:01:53;48;42;
47810;PMS5003;33575;52.600;7.318;2023-03-03T01:04:24;50;42;
47810;PMS5003;33575;52.600;7.318;2023-03-03T01:06:54;49;45;
47810;PMS5003;33575;52.600;7.318;2023-03-03T01:09:25;51;43;
47810;PMS5003;33575;52.600;7.318;2023-03-03T01:11:55;54;47;
47810;PMS5003;33575;52.600;7.318;2023-03-03T01:14:26;60;53;
47810;PMS5003;33575;52.600;7.318;2023-03-03T01:16:56;54;48;
47810;PMS5003;33575;52.600;7.318;2023-03-03T01:19:27;52;48;
47810;PMS5003;33575;52.600;7.318;2023-03-03T01:21:57;55;50;
47810;PMS5003;33575;52.600;7.318;2023-03-03T01:24:28;60;55;
47810;PMS5003;33575;52.600;7.318;2023-03-03T01:26:58;50;46;
47810;PMS5003;33575;52.600;7.318;2023-03-03T01:29:29;57;48;
47810;PMS5003;33575;52.600;7.318;2023-03-03T01:32:00;53;48;
47810;PMS5003;33575;52.600;7.318;2023-03-03T01:34:30;54;51;
47810;PMS5003;33575;52.600;7.318;2023-03-03T01:37:00;41;40;
47810;PMS5003;33575;52.600;7.318;2023-03-03T01:39:30;50;48;
47810;PMS5003;33575;52.600;7.318;2023-03-03T01:42:02;47;43;
47810;PMS5003;33575;52.600;7.318;2023-03-03T01:44:32;50;47;
47810;PMS5003;33575;52.600;7.318;2023-03-03T01:47:04;58;51;
47810;PMS5003;33575;52.600;7.318;2023-03-03T01:49:35;57;54;
47810;PMS5003;33575;52.600;7.318;2023-03-03T01:52:08;55;51;
47810;PMS5003;33575;52.600;7.318;2023-03-03T01:54:35;55;50;
47810;PMS5003;33575;52.600;7.318;2023-03-03T01:57:05;61;53;
47810;PMS5003;33575;52.600;7.318;2023-03-03T01:59:36;57;50;
47810;PMS5003;33575;52.600;7.318;2023-03-03T02:02:06;43;43;
47810;PMS5003;33575;52.600;7.318;2023-03-03T02:04:36;53;48;
47810;PMS5003;33575;52.600;7.318;2023-03-03T02:07:07;57;53;
47810;PMS5003;33575;52.600;7.318;2023-03-03T02:09:40;60;51;
47810;PMS5003;33575;52.600;7.318;2023-03-03T02:12:08;52;48;
47810;PMS5003;33575;52.600;7.318;2023-03-03T02:14:37;50;44;
47810;PMS5003;33575;52.600;7.318;2023-03-03T02:17:08;50;47;
47810;PMS5003;33575;52.600;7.318;2023-03-03T02:19:41;53;50;
47810;PMS5003;33575;52.600;7.318;2023-03-03T02:22:08;48;45;
47810;PMS5003;33575;52.600;7.318;2023-03-03T02:24:40;49;47;
47810;PMS5003;33575;52.600;7.318;2023-03-03T02:27:09;54;48;
47810;PMS5003;33575;52.600;7.318;2023-03-03T02:29:39;51;50;
47810;PMS5003;33575;52.600;7.318;2023-03-03T02:32:10;52;45;
47810;PMS5003;33575;52.600;7.318;2023-03-03T02:34:44;52;46;
47810;PMS5003;33575;52.600;7.318;2023-03-03T02:37:11;54;51;
47810;PMS5003;33575;52.600;7.318;2023-03-03T02:39:41;46;42;
47810;PMS5003;33575;52.600;7.318;2023-03-03T02:42:13;54;50;
47810;PMS5003;33575;52.600;7.318;2023-03-03T02:44:42;57;51;
47810;PMS5003;33575;52.600;7.318;2023-03-03T02:47:12;50;47;
47810;PMS5003;33575;52.600;7.318;2023-03-03T02:49:43;52;46;
47810;PMS5003;33575;52.600;7.318;2023-03-03T02:52:14;52;43;
47810;PMS5003;33575;52.600;7.318;2023-03-03T02:54:44;47;46;
47810;PMS5003;33575;52.600;7.318;2023-03-03T02:57:14;49;45;
47810;PMS5003;33575;52.600;7.318;2023-03-03T02:59:45;51;46;
47810;PMS5003;33575;52.600;7.318;2023-03-03T03:02:15;54;47;
47810;PMS5003;33575;52.600;7.318;2023-03-03T03:04:45;44;42;
47810;PMS5003;33575;52.600;7.318;2023-03-03T03:07:16;52;43;
47810;PMS5003;33575;52.600;7.318;2023-03-03T03:09:46;58;52;
47810;PMS5003;33575;52.600;7.318;2023-03-03T03:12:17;44;41;
47810;PMS5003;33575;52.600;7.318;2023-03-03T03:14:47;45;42;
47810;PMS5003;33575;52.600;7.318;2023-03-03T03:17:18;50;47;
47810;PMS5003;33575;52.600;7.318;2023-03-03T03:19:48;45;42;
47810;PMS5003;33575;52.600;7.318;2023-03-03T03:22:18;55;48;
47810;PMS5003;33575;52.600;7.318;2023-03-03T03:24:48;47;42;
47810;PMS5003;33575;52.600;7.318;2023-03-03T03:27:19;45;41;
47810;PMS5003;33575;52.600;7.318;2023-03-03T03:29:49;58;52;
47810;PMS5003;33575;52.600;7.318;2023-03-03T03:32:20;50;47;
47810;PMS5003;33575;52.600;7.318;2023-03-03T03:34:50;49;45;
47810;PMS5003;33575;52.600;7.318;2023-03-03T03:37:20;66;52;
47810;PMS5003;33575;52.600;7.318;2023-03-03T03:39:50;55;50;
47810;PMS5003;33575;52.600;7.318;2023-03-03T03:42:21;43;39;
47810;PMS5003;33575;52.600;7.318;2023-03-03T03:44:51;48;44;
47810;PMS5003;33575;52.600;7.318;2023-03-03T03:47:22;52;46;
47810;PMS5003;33575;52.600;7.318;2023-03-03T03:49:52;43;40;
47810;PMS5003;33575;52.600;7.318;2023-03-03T03:52:23;46;44;
47810;PMS5003;33575;52.600;7.318;2023-03-03T03:54:54;43;41;
47810;PMS5003;33575;52.600;7.318;2023-03-03T03:57:27;45;42;
47810;PMS5003;33575;52.600;7.318;2023-03-03T03:59:55;51;44;
47810;PMS5003;33575;52.600;7.318;2023-03-03T04:02:25;44;40;
47810;PMS5003;33575;52.600;7.318;2023-03-03T04:04:55;53;47;
47810;PMS5003;33575;52.600;7.318;2023-03-03T04:07:26;53;42;
47810;PMS5003;33575;52.600;7.318;2023-03-03T04:09:56;52;47;
47810;PMS5003;33575;52.600;7.318;2023-03-03T04:12:26;42;40;
47810;PMS5003;33575;52.600;7.318;2023-03-03T04:14:57;51;43;
47810;PMS5003;33575;52.600;7.318;2023-03-03T04:17:27;40;37;
47810;PMS5003;33575;52.600;7.318;2023-03-03T04:19:58;48;37;
47810;PMS5003;33575;52.600;7.318;2023-03-03T04:22:28;44;38;
47810;PMS5003;33575;52.600;7.318;2023-03-03T04:24:59;48;44;
47810;PMS5003;33575;52.600;7.318;2023-03-03T04:27:29;51;40;
47810;PMS5003;33575;52.600;7.318;2023-03-03T04:29:59;51;46;
47810;PMS5003;33575;52.600;7.318;2023-03-03T04:32:29;41;39;
47810;PMS5003;33575;52.600;7.318;2023-03-03T04:35:05;49;46;
47810;PMS5003;33575;52.600;7.318;2023-03-03T04:37:30;50;46;
47810;PMS5003;33575;52.600;7.318;2023-03-03T04:40:01;55;46;
47810;PMS5003;33575;52.600;7.318;2023-03-03T04:42:31;51;43;
47810;PMS5003;33575;52.600;7.318;2023-03-03T04:45:02;49;44;
47810;PMS5003;33575;52.600;7.318;2023-03-03T04:47:32;40;37;
47810;PMS5003;33575;52.600;7.318;2023-03-03T04:50:03;47;41;
47810;PMS5003;33575;52.600;7.318;2023-03-03T04:52:33;50;45;
47810;PMS5003;33575;52.600;7.318;2023-03-03T04:55:03;44;39;
47810;PMS5003;33575;52.600;7.318;2023-03-03T04:57:34;43;35;
47810;PMS5003;33575;52.600;7.318;2023-03-03T05:00:05;51;41;
47810;PMS5003;33575;52.600;7.318;2023-03-03T05:02:35;45;38;
47810;PMS5003;33575;52.600;7.318;2023-03-03T05:05:05;45;38;
47810;PMS5003;33575;52.600;7.318;2023-03-03T05:07:35;36;35;
47810;PMS5003;33575;52.600;7.318;2023-03-03T05:10:06;39;34;
47810;PMS5003;33575;52.600;7.318;2023-03-03T05:12:36;42;39;
47810;PMS5003;33575;52.600;7.318;2023-03-03T05:15:06;50;42;
47810;PMS5003;33575;52.600;7.318;2023-03-03T05:17:36;45;37;
47810;PMS5003;33575;52.600;7.318;2023-03-03T05:20:07;42;38;
47810;PMS5003;33575;52.600;7.318;2023-03-03T05:22:36;46;43;
47810;PMS5003;33575;52.600;7.318;2023-03-03T05:25:07;32;30;
47810;PMS5003;33575;52.600;7.318;2023-03-03T05:27:38;42;36;
47810;PMS5003;33575;52.600;7.318;2023-03-03T05:30:08;41;34;
47810;PMS5003;33575;52.600;7.318;2023-03-03T05:32:38;35;32;
47810;PMS5003;33575;52.600;7.318;2023-03-03T05:35:09;47;39;
47810;PMS5003;33575;52.600;7.318;2023-03-03T05:37:39;45;40;
47810;PMS5003;33575;52.600;7.318;2023-03-03T05:40:10;41;36;
47810;PMS5003;33575;52.600;7.318;2023-03-03T05:42:40;49;42;
47810;PMS5003;33575;52.600;7.318;2023-03-03T05:45:10;51;42;
47810;PMS5003;33575;52.600;7.318;2023-03-03T05:47:40;48;43;
47810;PMS5003;33575;52.600;7.318;2023-03-03T05:50:10;40;38;
47810;PMS5003;33575;52.600;7.318;2023-03-03T05:52:41;41;38;
47810;PMS5003;33575;52.600;7.318;2023-03-03T05:55:11;46;38;
47810;PMS5003;33575;52.600;7.318;2023-03-03T05:57:41;45;37;
47810;PMS5003;33575;52.600;7.318;2023-03-03T06:00:12;35;33;
47810;PMS5003;33575;52.600;7.318;2023-03-03T06:02:42;36;34;
47810;PMS5003;33575;52.600;7.318;2023-03-03T06:05:13;41;38;
47810;PMS5003;33575;52.600;7.318;2023-03-03T06:07:43;42;40;
47810;PMS5003;33575;52.600;7.318;2023-03-03T06:10:13;37;35;
47810;PMS5003;33575;52.600;7.318;2023-03-03T06:12:43;47;41;
47810;PMS5003;33575;52.600;7.318;2023-03-03T06:15:14;47;41;
47810;PMS5003;33575;52.600;7.318;2023-03-03T06:17:44;47;41;
47810;PMS5003;33575;52.600;7.318;2023-03-03T06:20:14;42;36;
47810;PMS5003;33575;52.600;7.318;2023-03-03T06:22:45;40;36;
47810;PMS5003;33575;52.600;7.318;2023-03-03T06:25:15;39;37;
47810;PMS5003;33575;52.600;7.318;2023-03-03T06:27:45;46;41;
47810;PMS5003;33575;52.600;7.318;2023-03-03T06:30:15;46;40;
47810;PMS5003;33575;52.600;7.318;2023-03-03T06:32:46;43;40;
47810;PMS5003;33575;52.600;7.318;2023-03-03T06:35:16;38;36;
47810;PMS5003;33575;52.600;7.318;2023-03-03T06:37:47;47;41;
47810;PMS5003;33575;52.600;7.318;2023-03-03T06:40:18;50;46;
47810;PMS5003;33575;52.600;7.318;2023-03-03T06:42:48;47;40;
47810;PMS5003;33575;52.600;7.318;2023-03-03T06:45:18;53;48;
47810;PMS5003;33575;52.600;7.318;2023-03-03T06:47:49;52;45;
47810;PMS5003;33575;52.600;7.318;2023-03-03T06:50:20;64;60;
47810;PMS5003;33575;52.600;7.318;2023-03-03T06:52:50;59;50;
47810;PMS5003;33575;52.600;7.318;2023-03-03T06:55:21;61;51;
47810;PMS5003;33575;52.600;7.318;2023-03-03T06:57:51;49;45;
47810;PMS5003;33575;52.600;7.318;2023-03-03T07:00:22;73;68;
47810;PMS5003;33575;52.600;7.318;2023-03-03T07:02:53;86;75;
47810;PMS5003;33575;52.600;7.318;2023-03-03T07:05:23;85;76;
47810;PMS5003;33575;52.600;7.318;2023-03-03T07:07:53;58;52;
47810;PMS5003;33575;52.600;7.318;2023-03-03T07:10:24;48;46;
47810;PMS5003;33575;52.600;7.318;2023-03-03T07:12:53;45;42;
47810;PMS5003;33575;52.600;7.318;2023-03-03T07:15:24;59;50;
47810;PMS5003;33575;52.600;7.318;2023-03-03T07:17:55;47;40;
47810;PMS5003;33575;52.600;7.318;2023-03-03T07:20:27;48;42;
47810;PMS5003;33575;52.600;7.318;2023-03-03T07:22:55;57;50;
47810;PMS5003;33575;52.600;7.318;2023-03-03T07:25:28;52;49;
47810;PMS5003;33575;52.600;7.318;2023-03-03T07:27:57;44;39;
47810;PMS5003;33575;52.600;7.318;2023-03-03T07:30:26;45;42;
47810;PMS5003;33575;52.600;7.318;2023-03-03T07:32:57;45;41;
47810;PMS5003;33575;52.600;7.318;2023-03-03T07:35:29;64;51;
47810;PMS5003;33575;52.600;7.318;2023-03-03T07:37:58;60;51;
47810;PMS5003;33575;52.600;7.318;2023-03-03T07:40:32;76;63;
47810;PMS5003;33575;52.600;7.318;2023-03-03T07:42:58;57;53;
47810;PMS5003;33575;52.600;7.318;2023-03-03T07:45:29;52;49;
47810;PMS5003;33575;52.600;7.318;2023-03-03T07:48:14;70;60;
47810;PMS5003;33575;52.600;7.318;2023-03-03T07:50:30;60;54;
47810;PMS5003;33575;52.600;7.318;2023-03-03T07:53:00;45;39;
47810;PMS5003;33575;52.600;7.318;2023-03-03T07:55:32;33;32;
47810;PMS5003;33575;52.600;7.318;2023-03-03T08:03:03;55;48;
47810;PMS5003;33575;52.600;7.318;2023-03-03T08:05:33;33;33;
47810;PMS5003;33575;52.600;7.318;2023-03-03T08:10:35;30;30;
47810;PMS5003;33575;52.600;7.318;2023-03-03T08:13:08;34;30;
47810;PMS5003;33575;52.600;7.318;2023-03-03T08:15:35;30;29;
47810;PMS5003;33575;52.600;7.318;2023-03-03T08:18:12;37;33;
47810;PMS5003;33575;52.600;7.318;2023-03-03T08:23:06;30;29;
47810;PMS5003;33575;52.600;7.318;2023-03-03T08:25:36;29;27;
47810;PMS5003;33575;52.600;7.318;2023-03-03T08:28:07;25;24;
47810;PMS5003;33575;52.600;7.318;2023-03-03T08:30:38;30;28;
47810;PMS5003;33575;52.600;7.318;2023-03-03T08:33:09;29;26;
47810;PMS5003;33575;52.600;7.318;2023-03-03T08:35:40;32;30;
47810;PMS5003;33575;52.600;7.318;2023-03-03T08:38:10;27;25;
47810;PMS5003;33575;52.600;7.318;2023-03-03T08:40:41;30;29;
47810;PMS5003;33575;52.600;7.318;2023-03-03T08:43:12;26;25;
47810;PMS5003;33575;52.600;7.318;2023-03-03T08:45:41;32;30;
47810;PMS5003;33575;52.600;7.318;2023-03-03T08:48:12;28;26;
47810;PMS5003;33575;52.600;7.318;2023-03-03T08:50:42;26;25;
47810;PMS5003;33575;52.600;7.318;2023-03-03T08:53:13;26;22;
47810;PMS5003;33575;52.600;7.318;2023-03-03T08:55:43;22;22;
47810;PMS5003;33575;52.600;7.318;2023-03-03T08:58:14;17;17;
47810;PMS5003;33575;52.600;7.318;2023-03-03T09:00:46;20;20;
47810;PMS5003;33575;52.600;7.318;2023-03-03T09:03:15;18;17;
47810;PMS5003;33575;52.600;7.318;2023-03-03T09:05:46;23;20;
47810;PMS5003;33575;52.600;7.318;2023-03-03T09:08:16;22;20;
47810;PMS5003;33575;52.600;7.318;2023-03-03T09:10:47;21;21;
47810;PMS5003;33575;52.600;7.318;2023-03-03T09:13:18;19;18;
47810;PMS5003;33575;52.600;7.318;2023-03-03T09:15:48;18;17;
47810;PMS5003;33575;52.600;7.318;2023-03-03T09:18:19;19;17;
47810;PMS5003;33575;52.600;7.318;2023-03-03T09:20:50;17;16;
47810;PMS5003;33575;52.600;7.318;2023-03-03T09:23:24;25;23;
47810;PMS5003;33575;52.600;7.318;2023-03-03T09:25:50;19;19;
47810;PMS5003;33575;52.600;7.318;2023-03-03T09:28:22;18;17;
47810;PMS5003;33575;52.600;7.318;2023-03-03T09:30:52;17;15;
47810;PMS5003;33575;52.600;7.318;2023-03-03T09:33:23;15;15;
47810;PMS5003;33575;52.600;7.318;2023-03-03T09:35:53;19;18;
47810;PMS5003;33575;52.600;7.318;2023-03-03T09:38:25;17;16;
47810;PMS5003;33575;52.600;7.318;2023-03-03T09:41:02;16;16;
47810;PMS5003;33575;52.600;7.318;2023-03-03T09:43:25;17;16;
47810;PMS5003;33575;52.600;7.318;2023-03-03T09:45:57;17;15;
47810;PMS5003;33575;52.600;7.318;2023-03-03T09:48:28;22;20;
47810;PMS5003;33575;52.600;7.318;2023-03-03T09:50:59;22;20;
47810;PMS5003;33575;52.600;7.318;2023-03-03T09:53:31;19;17;
47810;PMS5003;33575;52.600;7.318;2023-03-03T09:55:58;14;13;
47810;PMS5003;33575;52.600;7.318;2023-03-03T09:58:32;25;24;
47810;PMS5003;33575;52.600;7.318;2023-03-03T10:01:00;19;18;
47810;PMS5003;33575;52.600;7.318;2023-03-03T10:03:37;18;17;
47810;PMS5003;33575;52.600;7.318;2023-03-03T10:06:00;16;16;
47810;PMS5003;33575;52.600;7.318;2023-03-03T10:08:36;21;21;
47810;PMS5003;33575;52.600;7.318;2023-03-03T10:11:01;15;13;
47810;PMS5003;33575;52.600;7.318;2023-03-03T10:16:08;14;14;
47810;PMS5003;33575;52.600;7.318;2023-03-03T10:18:35;14;13;
47810;PMS5003;33575;52.600;7.318;2023-03-03T10:21:04;15;13;
47810;PMS5003;33575;52.600;7.318;2023-03-03T10:23:40;17;16;
47810;PMS5003;33575;52.600;7.318;2023-03-03T10:26:05;19;18;
47810;PMS5003;33575;52.600;7.318;2023-03-03T10:31:10;18;16;
47810;PMS5003;33575;52.600;7.318;2023-03-03T10:33:36;11;11;
47810;PMS5003;33575;52.600;7.318;2023-03-03T10:36:16;12;12;
47810;PMS5003;33575;52.600;7.318;2023-03-03T10:38:40;14;13;
47810;PMS5003;33575;52.600;7.318;2023-03-03T10:41:12;15;14;
47810;PMS5003;33575;52.600;7.318;2023-03-03T10:43:41;15;13;
47810;PMS5003;33575;52.600;7.318;2023-03-03T10:46:14;16;16;
47810;PMS5003;33575;52.600;7.318;2023-03-03T10:48:45;15;14;
47810;PMS5003;33575;52.600;7.318;2023-03-03T10:51:12;13;12;
47810;PMS5003;33575;52.600;7.318;2023-03-03T10:53:41;12;12;
47810;PMS5003;33575;52.600;7.318;2023-03-03T10:56:14;14;13;
47810;PMS5003;33575;52.600;7.318;2023-03-03T10:58:45;11;11;
47810;PMS5003;33575;52.600;7.318;2023-03-03T11:01:14;12;12;
47810;PMS5003;33575;52.600;7.318;2023-03-03T11:03:47;11;10;
47810;PMS5003;33575;52.600;7.318;2023-03-03T11:06:14;11;11;
47810;PMS5003;33575;52.600;7.318;2023-03-03T11:08:45;13;12;
47810;PMS5003;33575;52.600;7.318;2023-03-03T11:11:16;9;9;
47810;PMS5003;33575;52.600;7.318;2023-03-03T11:13:46;10;10;
47810;PMS5003;33575;52.600;7.318;2023-03-03T11:16:20;11;10;
47810;PMS5003;33575;52.600;7.318;2023-03-03T11:18:51;11;9;
47810;PMS5003;33575;52.600;7.318;2023-03-03T11:21:19;10;10;
47810;PMS5003;33575;52.600;7.318;2023-03-03T11:23:50;9;9;
47810;PMS5003;33575;52.600;7.318;2023-03-03T11:26:22;12;9;
47810;PMS5003;33575;52.600;7.318;2023-03-03T11:28:53;8;8;
47810;PMS5003;33575;52.600;7.318;2023-03-03T11:31:21;8;7;
47810;PMS5003;33575;52.600;7.318;2023-03-03T11:33:53;14;14;
47810;PMS5003;33575;52.600;7.318;2023-03-03T11:36:22;11;10;
47810;PMS5003;33575;52.600;7.318;2023-03-03T11:38:53;12;10;
47810;PMS5003;33575;52.600;7.318;2023-03-03T11:41:28;13;13;
47810;PMS5003;33575;52.600;7.318;2023-03-03T11:43:53;11;11;
47810;PMS5003;33575;52.600;7.318;2023-03-03T11:46:24;11;9;
47810;PMS5003;33575;52.600;7.318;2023-03-03T11:48:56;9;9;
47810;PMS5003;33575;52.600;7.318;2023-03-03T11:51:27;12;11;
47810;PMS5003;33575;52.600;7.318;2023-03-03T11:53:57;10;9;
47810;PMS5003;33575;52.600;7.318;2023-03-03T11:56:26;12;12;
47810;PMS5003;33575;52.600;7.318;2023-03-03T11:58:59;9;9;
47810;PMS5003;33575;52.600;7.318;2023-03-03T12:01:28;8;7;
47810;PMS5003;33575;52.600;7.318;2023-03-03T12:03:57;9;7;
47810;PMS5003;33575;52.600;7.318;2023-03-03T12:06:29;8;7;
47810;PMS5003;33575;52.600;7.318;2023-03-03T12:09:02;9;9;
47810;PMS5003;33575;52.600;7.318;2023-03-03T12:11:31;9;9;
47810;PMS5003;33575;52.600;7.318;2023-03-03T12:14:01;8;7;
47810;PMS5003;33575;52.600;7.318;2023-03-03T12:16:35;8;6;
47810;PMS5003;33575;52.600;7.318;2023-03-03T12:19:04;6;6;
47810;PMS5003;33575;52.600;7.318;2023-03-03T12:21:37;6;5;
47810;PMS5003;33575;52.600;7.318;2023-03-03T12:24:07;4;4;
47810;PMS5003;33575;52.600;7.318;2023-03-03T12:26:35;4;4;
47810;PMS5003;33575;52.600;7.318;2023-03-03T12:29:04;3;3;
47810;PMS5003;33575;52.600;7.318;2023-03-03T12:31:38;7;4;
47810;PMS5003;33575;52.600;7.318;2023-03-03T12:34:08;3;3;
47810;PMS5003;33575;52.600;7.318;2023-03-03T12:39:07;5;5;
47810;PMS5003;33575;52.600;7.318;2023-03-03T12:41:39;6;4;
47810;PMS5003;33575;52.600;7.318;2023-03-03T12:44:12;6;6;
47810;PMS5003;33575;52.600;7.318;2023-03-03T12:46:42;5;5;
47810;PMS5003;33575;52.600;7.318;2023-03-03T12:49:10;5;5;
47810;PMS5003;33575;52.600;7.318;2023-03-03T12:51:43;8;7;
47810;PMS5003;33575;52.600;7.318;2023-03-03T12:54:16;5;5;
47810;PMS5003;33575;52.600;7.318;2023-03-03T12:56:43;7;6;
47810;PMS5003;33575;52.600;7.318;2023-03-03T12:59:13;7;7;
47810;PMS5003;33575;52.600;7.318;2023-03-03T13:01:47;6;6;
47810;PMS5003;33575;52.600;7.318;2023-03-03T13:04:18;10;9;
47810;PMS5003;33575;52.600;7.318;2023-03-03T13:06:45;7;7;
47810;PMS5003;33575;52.600;7.318;2023-03-03T13:09:19;5;5;
47810;PMS5003;33575;52.600;7.318;2023-03-03T13:11:51;6;5;
47810;PMS5003;33575;52.600;7.318;2023-03-03T13:14:21;6;6;
47810;PMS5003;33575;52.600;7.318;2023-03-03T13:17:00;7;5;
47810;PMS5003;33575;52.600;7.318;2023-03-03T13:19:19;6;6;
47810;PMS5003;33575;52.600;7.318;2023-03-03T13:21:50;6;5;
47810;PMS5003;33575;52.600;7.318;2023-03-03T13:24:20;7;7;
47810;PMS5003;33575;52.600;7.318;2023-03-03T13:26:52;6;6;
47810;PMS5003;33575;52.600;7.318;2023-03-03T13:29:22;6;6;
47810;PMS5003;33575;52.600;7.318;2023-03-03T13:31:53;6;6;
47810;PMS5003;33575;52.600;7.318;2023-03-03T13:34:27;6;5;
47810;PMS5003;33575;52.600;7.318;2023-03-03T13:36:55;5;5;
47810;PMS5003;33575;52.600;7.318;2023-03-03T13:39:26;5;5;
47810;PMS5003;33575;52.600;7.318;2023-03-03T13:41:56;8;8;
47810;PMS5003;33575;52.600;7.318;2023-03-03T13:44:28;8;7;
47810;PMS5003;33575;52.600;7.318;2023-03-03T13:46:59;8;7;
47810;PMS5003;33575;52.600;7.318;2023-03-03T13:49:32;6;6;
47810;PMS5003;33575;52.600;7.318;2023-03-03T13:51:59;5;5;
47810;PMS5003;33575;52.600;7.318;2023-03-03T13:57:05;9;8;
47810;PMS5003;33575;52.600;7.318;2023-03-03T13:59:33;11;9;
47810;PMS5003;33575;52.600;7.318;2023-03-03T14:02:04;8;7;
47810;PMS5003;33575;52.600;7.318;2023-03-03T14:04:36;8;7;
47810;PMS5003;33575;52.600;7.318;2023-03-03T14:07:06;9;9;
47810;PMS5003;33575;52.600;7.318;2023-03-03T14:09:36;8;7;
47810;PMS5003;33575;52.600;7.318;2023-03-03T14:12:06;11;11;
47810;PMS5003;33575;52.600;7.318;2023-03-03T14:14:39;7;7;
47810;PMS5003;33575;52.600;7.318;2023-03-03T14:17:07;9;9;
47810;PMS5003;33575;52.600;7.318;2023-03-03T14:19:37;7;7;
47810;PMS5003;33575;52.600;7.318;2023-03-03T14:22:11;10;10;
47810;PMS5003;33575;52.600;7.318;2023-03-03T14:27:13;9;9;
47810;PMS5003;33575;52.600;7.318;2023-03-03T14:29:39;11;10;
47810;PMS5003;33575;52.600;7.318;2023-03-03T14:34:40;9;8;
47810;PMS5003;33575;52.600;7.318;2023-03-03T14:39:41;7;7;
47810;PMS5003;33575;52.600;7.318;2023-03-03T14:42:13;7;7;
47810;PMS5003;33575;52.600;7.318;2023-03-03T14:47:19;8;7;
47810;PMS5003;33575;52.600;7.318;2023-03-03T14:49:44;6;6;
47810;PMS5003;33575;52.600;7.318;2023-03-03T14:52:20;7;6;
47810;PMS5003;33575;52.600;7.318;2023-03-03T14:54:46;6;6;
47810;PMS5003;33575;52.600;7.318;2023-03-03T14:57:17;5;5;
47810;PMS5003;33575;52.600;7.318;2023-03-03T15:04:48;6;5;
47810;PMS5003;33575;52.600;7.318;2023-03-03T15:07:21;3;3;
47810;PMS5003;33575;52.600;7.318;2023-03-03T15:09:50;4;4;
47810;PMS5003;33575;52.600;7.318;2023-03-03T15:12:21;6;6;
47810;PMS5003;33575;52.600;7.318;2023-03-03T15:14:51;6;6;
47810;PMS5003;33575;52.600;7.318;2023-03-03T15:17:24;7;5;
47810;PMS5003;33575;52.600;7.318;2023-03-03T15:19:56;5;5;
47810;PMS5003;33575;52.600;7.318;2023-03-03T15:22:28;5;4;
47810;PMS5003;33575;52.600;7.318;2023-03-03T15:24:56;5;5;
47810;PMS5003;33575;52.600;7.318;2023-03-03T15:27:26;7;6;
47810;PMS5003;33575;52.600;7.318;2023-03-03T15:29:58;5;5;
47810;PMS5003;33575;52.600;7.318;2023-03-03T15:32:27;5;5;
47810;PMS5003;33575;52.600;7.318;2023-03-03T15:34:57;4;4;
47810;PMS5003;33575;52.600;7.318;2023-03-03T15:37:31;7;5;
47810;PMS5003;33575;52.600;7.318;2023-03-03T15:40:01;5;5;
47810;PMS5003;33575;52.600;7.318;2023-03-03T15:42:30;6;6;
47810;PMS5003;33575;52.600;7.318;2023-03-03T15:45:01;7;6;
47810;PMS5003;33575;52.600;7.318;2023-03-03T15:50:03;6;6;
47810;PMS5003;33575;52.600;7.318;2023-03-03T15:52:35;6;6;
47810;PMS5003;33575;52.600;7.318;2023-03-03T15:55:06;7;6;
47810;PMS5003;33575;52.600;7.318;2023-03-03T15:57:35;7;7;
47810;PMS5003;33575;52.600;7.318;2023-03-03T16:00:06;7;6;
47810;PMS5003;33575;52.600;7.318;2023-03-03T16:02:38;8;7;
47810;PMS5003;33575;52.600;7.318;2023-03-03T16:05:07;6;6;
47810;PMS5003;33575;52.600;7.318;2023-03-03T16:07:37;6;5;
47810;PMS5003;33575;52.600;7.318;2023-03-03T16:10:09;8;8;
47810;PMS5003;33575;52.600;7.318;2023-03-03T16:12:38;11;10;
47810;PMS5003;33575;52.600;7.318;2023-03-03T16:15:15;6;5;
47810;PMS5003;33575;52.600;7.318;2023-03-03T16:17:39;5;5;
47810;PMS5003;33575;52.600;7.318;2023-03-03T16:20:12;7;7;
47810;PMS5003;33575;52.600;7.318;2023-03-03T16:22:43;11;10;
47810;PMS5003;33575;52.600;7.318;2023-03-03T16:25:16;10;9;
47810;PMS5003;33575;52.600;7.318;2023-03-03T16:27:41;7;6;
47810;PMS5003;33575;52.600;7.318;2023-03-03T16:30:16;8;8;
47810;PMS5003;33575;52.600;7.318;2023-03-03T16:32:43;8;8;
47810;PMS5003;33575;52.600;7.318;2023-03-03T16:35:15;8;6;
47810;PMS5003;33575;52.600;7.318;2023-03-03T16:37:49;7;7;
47810;PMS5003;33575;52.600;7.318;2023-03-03T16:40:16;7;7;
47810;PMS5003;33575;52.600;7.318;2023-03-03T16:42:44;6;6;
47810;PMS5003;33575;52.600;7.318;2023-03-03T16:45:19;8;7;
47810;PMS5003;33575;52.600;7.318;2023-03-03T16:47:50;7;7;
47810;PMS5003;33575;52.600;7.318;2023-03-03T16:50:20;8;7;
47810;PMS5003;33575;52.600;7.318;2023-03-03T16:52:48;8;6;
47810;PMS5003;33575;52.600;7.318;2023-03-03T16:55:19;6;5;
47810;PMS5003;33575;52.600;7.318;2023-03-03T16:57:52;8;7;
47810;PMS5003;33575;52.600;7.318;2023-03-03T17:00:20;6;6;
47810;PMS5003;33575;52.600;7.318;2023-03-03T17:05:23;10;9;
47810;PMS5003;33575;52.600;7.318;2023-03-03T17:07:54;10;10;
47810;PMS5003;33575;52.600;7.318;2023-03-03T17:10:24;6;6;
47810;PMS5003;33575;52.600;7.318;2023-03-03T17:12:59;8;7;
47810;PMS5003;33575;52.600;7.318;2023-03-03T17:15:28;9;8;
47810;PMS5003;33575;52.600;7.318;2023-03-03T17:17:57;9;7;
47810;PMS5003;33575;52.600;7.318;2023-03-03T17:20:28;5;5;
47810;PMS5003;33575;52.600;7.318;2023-03-03T17:22:59;6;4;
47810;PMS5003;33575;52.600;7.318;2023-03-03T17:25:28;7;6;
47810;PMS5003;33575;52.600;7.318;2023-03-03T17:28:01;10;8;
47810;PMS5003;33575;52.600;7.318;2023-03-03T17:30:29;6;6;
47810;PMS5003;33575;52.600;7.318;2023-03-03T17:33:05;5;5;
47810;PMS5003;33575;52.600;7.318;2023-03-03T17:35:34;5;4;